createdAt,value
2023-02-08T00:01:10.580Z,80.61
2023-02-08T00:03:40.779Z,80.52
2023-02-08T00:06:09.557Z,80.11
2023-02-08T00:08:38.065Z,80.16
2023-02-08T00:11:07.233Z,80.11
2023-02-08T00:13:34.820Z,80.79
2023-02-08T00:16:02.260Z,80.16
2023-02-08T00:18:29.875Z,80.34
2023-02-08T00:20:57.374Z,79.92
2023-02-08T00:23:25.836Z,80.65
2023-02-08T00:25:53.356Z,81.24
2023-02-08T00:28:20.728Z,81.36
2023-02-08T00:30:49.007Z,80.69
2023-02-08T00:33:35.246Z,79.59
2023-02-08T00:36:05.983Z,80.24
2023-02-08T00:38:33.422Z,79.94
2023-02-08T00:41:01.101Z,80.57
2023-02-08T00:43:29.749Z,81.42
2023-02-08T00:45:58.683Z,81.25
2023-02-08T00:48:27.403Z,82.22
2023-02-08T00:50:59.134Z,79.87
2023-02-08T00:53:26.307Z,78.79
2023-02-08T00:55:55.260Z,72.87
2023-02-08T00:58:23.129Z,73.01
2023-02-08T01:00:53.037Z,72.99
2023-02-08T01:03:22.080Z,72.28
2023-02-08T01:05:49.487Z,71.66
2023-02-08T01:08:16.899Z,71.84
2023-02-08T01:10:47.398Z,73.28
2023-02-08T01:13:14.782Z,71.62
2023-02-08T01:15:42.514Z,70.82
2023-02-08T01:18:10.206Z,68.53
2023-02-08T01:20:38.185Z,65.67
2023-02-08T01:23:05.763Z,62.70
2023-02-08T01:25:33.594Z,61.46
2023-02-08T01:28:01.089Z,62.22
2023-02-08T01:30:28.575Z,62.47
2023-02-08T01:32:55.873Z,61.46
2023-02-08T01:35:23.229Z,61.11
2023-02-08T01:37:50.764Z,59.46
2023-02-08T01:40:18.257Z,59.58
2023-02-08T01:42:45.581Z,58.44
2023-02-08T01:45:23.013Z,56.97
2023-02-08T01:48:05.019Z,55.72
2023-02-08T01:50:40.901Z,53.51
2023-02-08T01:53:08.506Z,53.46
2023-02-08T01:55:46.057Z,52.46
2023-02-08T01:58:15.447Z,51.64
2023-02-08T02:00:43.079Z,50.76
2023-02-08T02:03:14.534Z,50.75
2023-02-08T02:05:48.159Z,49.29
2023-02-08T02:08:16.133Z,48.31
2023-02-08T02:10:44.314Z,49.91
2023-02-08T02:13:16.840Z,49.77
2023-02-08T02:15:46.024Z,49.70
2023-02-08T02:18:26.776Z,49.43
2023-02-08T02:21:21.943Z,49.17
2023-02-08T02:24:12.308Z,48.20
2023-02-08T02:26:48.793Z,48.70
2023-02-08T02:29:28.196Z,48.47
2023-02-08T02:32:00.691Z,48.58
2023-02-08T02:34:40.795Z,47.74
2023-02-08T02:37:30.089Z,48.21
2023-02-08T02:40:16.503Z,47.23
2023-02-08T02:43:08.630Z,45.87
2023-02-08T02:45:35.832Z,45.61
2023-02-08T02:48:10.324Z,45.85
2023-02-08T02:50:44.740Z,46.14
2023-02-08T02:53:20.502Z,45.70
2023-02-08T02:55:53.940Z,45.67
2023-02-08T02:58:23.059Z,45.80
2023-02-08T03:00:55.223Z,45.76
2023-02-08T03:03:26.647Z,46.32
2023-02-08T03:06:01.979Z,45.46
2023-02-08T03:08:51.866Z,45.79
2023-02-08T03:11:27.442Z,45.55
2023-02-08T03:14:19.766Z,47.87
2023-02-08T03:17:11.323Z,48.21
2023-02-08T03:20:04.395Z,47.56
2023-02-08T03:22:31.686Z,46.63
2023-02-08T03:25:06.434Z,47.50
2023-02-08T03:27:36.265Z,48.31
2023-02-08T03:30:11.052Z,48.39
2023-02-08T03:32:50.532Z,49.11
2023-02-08T03:35:32.096Z,47.76
2023-02-08T03:38:06.046Z,47.78
2023-02-08T03:40:44.422Z,47.67
2023-02-08T03:43:27.472Z,49.80
2023-02-08T03:46:24.392Z,48.93
2023-02-08T03:48:58.557Z,50.59
2023-02-08T03:51:29.914Z,50.46
2023-02-08T03:54:00.421Z,48.75
2023-02-08T03:56:38.793Z,48.00
2023-02-08T03:59:11.397Z,47.64
2023-02-08T04:01:44.966Z,46.81
2023-02-08T04:04:15.830Z,46.52
2023-02-08T04:06:43.368Z,45.57
2023-02-08T04:09:10.880Z,45.72
2023-02-08T04:11:38.181Z,45.70
2023-02-08T04:14:05.579Z,46.20
2023-02-08T04:16:32.924Z,46.05
2023-02-08T04:19:00.295Z,47.55
2023-02-08T04:21:27.658Z,48.82
2023-02-08T04:23:55.038Z,50.82
2023-02-08T04:26:22.385Z,53.07
2023-02-08T04:28:49.757Z,54.00
2023-02-08T04:31:19.855Z,55.06
2023-02-08T04:33:47.263Z,55.57
2023-02-08T04:36:14.585Z,55.51
2023-02-08T04:38:44.624Z,55.81
2023-02-08T04:41:11.942Z,55.67
2023-02-08T04:43:39.361Z,54.89
2023-02-08T04:46:09.432Z,54.93
2023-02-08T04:48:36.800Z,54.80
2023-02-08T04:51:04.526Z,54.17
2023-02-08T04:53:31.941Z,54.18
2023-02-08T04:55:59.212Z,53.70
2023-02-08T04:58:26.612Z,54.13
2023-02-08T05:00:53.933Z,55.93
2023-02-08T05:03:21.282Z,55.53
2023-02-08T05:05:57.658Z,56.63
2023-02-08T05:08:25.420Z,56.23
2023-02-08T05:10:52.789Z,56.92
2023-02-08T05:13:20.130Z,57.13
2023-02-08T05:15:47.503Z,56.54
2023-02-08T05:18:14.965Z,56.19
2023-02-08T05:20:42.613Z,57.63
2023-02-08T05:23:12.670Z,57.73
2023-02-08T05:25:40.518Z,57.79
2023-02-08T05:28:07.877Z,58.36
2023-02-08T05:30:35.214Z,58.26
2023-02-08T05:33:02.574Z,58.33
2023-02-08T05:35:29.937Z,58.70
2023-02-08T05:37:57.250Z,58.87
2023-02-08T05:40:24.714Z,60.15
2023-02-08T05:42:52.255Z,61.09
2023-02-08T05:45:21.000Z,60.09
2023-02-08T05:47:48.343Z,60.96
2023-02-08T05:50:15.948Z,61.56
2023-02-08T05:52:43.268Z,62.11
2023-02-08T05:55:13.331Z,62.44
2023-02-08T05:57:40.700Z,62.52
2023-02-08T06:00:08.684Z,62.83
2023-02-08T06:02:43.584Z,63.33
2023-02-08T06:05:11.385Z,64.02
2023-02-08T06:07:38.783Z,65.40
2023-02-08T06:10:06.872Z,64.01
2023-02-08T06:12:34.205Z,65.69
2023-02-08T06:15:04.310Z,65.42
2023-02-08T06:17:31.721Z,64.51
2023-02-08T06:19:59.108Z,66.57
2023-02-08T06:22:27.169Z,66.22
2023-02-08T06:24:54.433Z,66.21
2023-02-08T06:27:21.790Z,65.28
2023-02-08T06:29:51.184Z,65.26
2023-02-08T06:32:18.714Z,65.33
2023-02-08T06:34:46.005Z,66.55
2023-02-08T06:37:13.324Z,66.06
2023-02-08T06:39:40.661Z,65.94
2023-02-08T06:42:08.030Z,65.42
2023-02-08T06:44:35.387Z,66.27
2023-02-08T06:47:03.148Z,67.23
2023-02-08T06:49:31.196Z,67.85
2023-02-08T06:51:58.518Z,68.52
2023-02-08T06:54:25.896Z,67.93
2023-02-08T06:56:54.560Z,66.94
2023-02-08T06:59:21.972Z,65.15
2023-02-08T07:01:49.834Z,62.89
2023-02-08T07:04:17.169Z,60.72
2023-02-08T07:06:47.476Z,59.93
2023-02-08T07:09:14.831Z,56.57
2023-02-08T07:11:42.407Z,56.61
2023-02-08T07:14:13.789Z,56.57
2023-02-08T07:16:42.154Z,56.19
2023-02-08T07:19:09.525Z,56.03
2023-02-08T07:21:36.859Z,54.32
2023-02-08T07:24:04.267Z,53.42
2023-02-08T07:26:31.743Z,53.21
2023-02-08T07:28:59.145Z,53.80
2023-02-08T07:31:26.529Z,53.57
2023-02-08T07:33:53.821Z,54.77
2023-02-08T07:36:21.227Z,54.84
2023-02-08T07:38:48.610Z,53.89
2023-02-08T07:41:16.267Z,51.85
2023-02-08T07:43:44.137Z,50.68
2023-02-08T07:46:14.011Z,47.67
2023-02-08T07:48:41.512Z,45.00
2023-02-08T07:51:09.895Z,42.92
2023-02-08T07:53:37.993Z,42.11
2023-02-08T07:56:06.329Z,41.40
2023-02-08T07:58:33.692Z,41.19
2023-02-08T08:01:09.443Z,41.50
2023-02-08T08:03:43.422Z,39.92
2023-02-08T08:06:10.705Z,38.73
2023-02-08T08:08:38.077Z,38.35
2023-02-08T08:11:06.083Z,38.74
2023-02-08T08:13:33.498Z,39.26
2023-02-08T08:16:00.775Z,39.24
2023-02-08T08:18:28.182Z,39.08
2023-02-08T08:20:55.526Z,38.45
2023-02-08T08:23:23.844Z,36.96
2023-02-08T08:25:51.100Z,36.15
2023-02-08T08:28:19.148Z,36.00
2023-02-08T08:30:46.658Z,32.72
2023-02-08T08:33:14.456Z,32.17
2023-02-08T08:35:43.852Z,31.09
2023-02-08T08:38:11.244Z,29.22
2023-02-08T08:40:38.916Z,27.21
2023-02-08T08:43:06.489Z,26.93
2023-02-08T08:45:33.834Z,27.27
2023-02-08T08:48:01.791Z,26.29
2023-02-08T08:50:29.197Z,26.61
2023-02-08T08:52:56.541Z,26.64
2023-02-08T08:55:28.336Z,27.17
2023-02-08T08:57:55.680Z,27.53
2023-02-08T09:00:25.985Z,26.73
2023-02-08T09:02:53.579Z,27.08
2023-02-08T09:05:20.892Z,27.78
2023-02-08T09:07:48.286Z,26.65
2023-02-08T09:10:15.634Z,26.69
2023-02-08T09:12:43.000Z,27.77
2023-02-08T09:15:11.666Z,26.55
2023-02-08T09:17:39.088Z,27.16
2023-02-08T09:20:06.637Z,27.20
2023-02-08T09:22:34.049Z,26.94
2023-02-08T09:25:02.102Z,26.69
2023-02-08T09:27:29.814Z,26.40
2023-02-08T09:29:57.104Z,25.62
2023-02-08T09:32:24.553Z,26.33
2023-02-08T09:34:51.840Z,26.67
2023-02-08T09:37:19.189Z,26.86
2023-02-08T09:39:46.720Z,26.10
2023-02-08T09:42:20.918Z,25.81
2023-02-08T09:45:20.486Z,25.97
2023-02-08T09:47:50.540Z,25.51
2023-02-08T09:50:26.439Z,25.96
2023-02-08T09:53:02.890Z,26.06
2023-02-08T09:55:37.257Z,26.62
2023-02-08T09:58:15.695Z,27.39
2023-02-08T10:00:46.969Z,27.76
2023-02-08T10:03:32.491Z,28.05
2023-02-08T10:06:00.747Z,29.16
2023-02-08T10:08:35.241Z,30.02
2023-02-08T10:11:08.696Z,30.17
2023-02-08T10:13:55.015Z,30.27
2023-02-08T10:17:22.015Z,30.92
2023-02-08T10:20:18.045Z,31.35
2023-02-08T10:23:06.886Z,31.85
2023-02-08T10:25:58.904Z,30.76
2023-02-08T10:28:35.170Z,31.35
2023-02-08T10:31:20.747Z,31.13
2023-02-08T10:34:00.227Z,32.76
2023-02-08T10:36:33.317Z,32.71
2023-02-08T10:39:12.986Z,33.76
2023-02-08T10:41:40.923Z,34.27
2023-02-08T10:44:40.642Z,33.87
2023-02-08T10:47:20.735Z,34.59
2023-02-08T10:50:00.230Z,35.28
2023-02-08T10:52:27.888Z,34.69
2023-02-08T10:54:58.497Z,32.84
2023-02-08T10:57:34.583Z,34.16
2023-02-08T11:00:09.722Z,33.82
2023-02-08T11:02:42.092Z,34.58
2023-02-08T11:05:15.562Z,33.83
2023-02-08T11:07:43.260Z,33.43
2023-02-08T11:10:19.661Z,34.01
2023-02-08T11:13:03.772Z,34.73
2023-02-08T11:15:51.864Z,34.61
2023-02-08T11:18:46.753Z,33.83
2023-02-08T11:21:33.681Z,33.67
2023-02-08T11:24:07.904Z,33.17
2023-02-08T11:26:39.039Z,32.98
2023-02-08T11:29:19.327Z,33.74
2023-02-08T11:32:02.477Z,34.44
2023-02-08T11:34:33.766Z,35.40
2023-02-08T11:37:05.354Z,36.33
2023-02-08T11:39:43.705Z,35.54
2023-02-08T11:42:39.873Z,35.64
2023-02-08T11:45:21.212Z,34.66
2023-02-08T11:47:50.087Z,35.00
2023-02-08T11:50:31.902Z,35.10
2023-02-08T11:53:05.730Z,34.54
2023-02-08T11:55:35.057Z,34.17
2023-02-08T11:58:02.409Z,35.84
2023-02-08T12:00:35.179Z,35.42
2023-02-08T12:03:12.025Z,34.43
2023-02-08T12:06:14.796Z,34.67
2023-02-08T12:09:15.016Z,34.62
2023-02-08T12:11:48.321Z,35.69
2023-02-08T12:14:35.532Z,34.22
2023-02-08T12:17:14.580Z,34.58
2023-02-08T12:20:00.576Z,35.10
2023-02-08T12:22:29.948Z,35.10
2023-02-08T12:25:06.604Z,34.57
2023-02-08T12:27:46.113Z,34.74
2023-02-08T12:30:30.200Z,33.85
2023-02-08T12:33:20.608Z,33.96
2023-02-08T12:36:02.693Z,34.84
2023-02-08T12:39:20.489Z,36.16
2023-02-08T12:42:22.803Z,36.36
2023-02-08T12:45:15.348Z,37.73
2023-02-08T12:48:03.439Z,37.21
2023-02-08T12:50:45.854Z,36.68
2023-02-08T12:53:40.274Z,36.96
2023-02-08T12:56:17.335Z,37.74
2023-02-08T12:59:01.910Z,37.62
2023-02-08T13:01:44.234Z,37.62
2023-02-08T13:04:19.582Z,38.53
2023-02-08T13:07:07.130Z,38.47
2023-02-08T13:09:35.673Z,39.24
2023-02-08T13:12:13.906Z,39.47
2023-02-08T13:14:51.922Z,39.30
2023-02-08T13:17:44.373Z,39.98
2023-02-08T13:20:29.212Z,39.79
2023-02-08T13:23:03.804Z,39.03
2023-02-08T13:25:34.919Z,39.06
2023-02-08T13:28:05.377Z,38.87
2023-02-08T13:30:39.813Z,38.90
2023-02-08T13:33:19.493Z,37.99
2023-02-08T13:35:53.593Z,38.46
2023-02-08T13:38:31.373Z,38.05
2023-02-08T13:41:05.860Z,36.94
2023-02-08T13:43:46.072Z,36.74
2023-02-08T13:46:13.928Z,36.45
2023-02-08T13:48:47.920Z,36.21
2023-02-08T13:51:33.674Z,36.35
2023-02-08T13:54:01.113Z,36.22
2023-02-08T13:56:44.451Z,35.29
2023-02-08T13:59:26.988Z,35.98
2023-02-08T14:02:14.942Z,37.31
2023-02-08T14:04:44.156Z,37.68
2023-02-08T14:07:11.436Z,37.80
2023-02-08T14:09:53.737Z,38.48
2023-02-08T14:12:34.989Z,39.20
2023-02-08T14:15:33.020Z,38.91
2023-02-08T14:18:04.017Z,38.85
2023-02-08T14:20:39.900Z,40.12
2023-02-08T14:23:22.219Z,40.43
2023-02-08T14:25:52.182Z,40.05
2023-02-08T14:28:41.310Z,39.70
2023-02-08T14:31:11.365Z,39.51
2023-02-08T14:33:42.535Z,40.35
2023-02-08T14:36:33.937Z,40.43
2023-02-08T14:39:07.890Z,40.74
2023-02-08T14:41:46.504Z,41.71
2023-02-08T14:44:43.308Z,42.40
2023-02-08T14:47:35.724Z,42.12
2023-02-08T14:50:17.071Z,42.06
2023-02-08T14:52:53.010Z,42.06
2023-02-08T14:55:27.437Z,41.22
2023-02-08T14:58:00.998Z,41.88
2023-02-08T15:00:39.181Z,41.40
2023-02-08T15:03:14.499Z,41.18
2023-02-08T15:06:00.316Z,41.57
2023-02-08T15:08:27.756Z,41.63
2023-02-08T15:10:55.877Z,42.20
2023-02-08T15:13:26.755Z,42.50
2023-02-08T15:15:57.290Z,42.19
2023-02-08T15:18:32.275Z,42.66
2023-02-08T15:21:05.425Z,43.55
2023-02-08T15:23:33.112Z,42.48
2023-02-08T15:26:04.895Z,43.07
2023-02-08T15:28:35.822Z,43.51
2023-02-08T15:31:11.375Z,42.98
2023-02-08T15:33:40.148Z,43.00
2023-02-08T15:36:16.232Z,41.93
2023-02-08T15:38:44.968Z,42.32
2023-02-08T15:41:14.996Z,42.50
2023-02-08T15:43:43.343Z,42.39
2023-02-08T15:46:27.442Z,42.64
2023-02-08T15:48:57.302Z,43.04
2023-02-08T15:51:27.408Z,43.48
2023-02-08T15:53:58.558Z,43.23
2023-02-08T15:56:37.541Z,44.14
2023-02-08T15:59:14.747Z,43.64
2023-02-08T16:01:46.897Z,44.21
2023-02-08T16:04:14.401Z,44.04
2023-02-08T16:06:49.296Z,44.55
2023-02-08T16:09:29.013Z,43.62
2023-02-08T16:11:59.546Z,45.13
2023-02-08T16:14:30.298Z,45.42
2023-02-08T16:16:58.848Z,44.93
2023-02-08T16:19:31.964Z,45.46
2023-02-08T16:22:21.326Z,45.91
2023-02-08T16:24:50.892Z,45.46
2023-02-08T16:27:25.715Z,46.79
2023-02-08T16:29:53.985Z,46.24
2023-02-08T16:32:26.546Z,45.75
2023-02-08T16:34:54.630Z,46.55
2023-02-08T16:37:35.079Z,46.00
2023-02-08T16:40:04.865Z,46.81
2023-02-08T16:42:39.949Z,46.89
2023-02-08T16:45:12.596Z,47.34
2023-02-08T16:47:41.621Z,46.94
2023-02-08T16:50:12.679Z,47.41
2023-02-08T16:52:40.569Z,47.53
2023-02-08T16:55:16.481Z,47.06
2023-02-08T16:57:53.310Z,47.14
2023-02-08T17:00:27.237Z,47.44
2023-02-08T17:02:55.901Z,47.90
2023-02-08T17:05:26.340Z,48.03
2023-02-08T17:07:53.702Z,48.62
2023-02-08T17:10:28.661Z,47.89
2023-02-08T17:13:07.033Z,46.08
2023-02-08T17:15:48.952Z,44.87
2023-02-08T17:18:16.506Z,44.33
2023-02-08T17:20:44.481Z,44.93
2023-02-08T17:23:12.327Z,44.59
2023-02-08T17:25:39.964Z,45.02
2023-02-08T17:28:11.962Z,44.80
2023-02-08T17:30:42.168Z,45.40
2023-02-08T17:33:22.251Z,45.31
2023-02-08T17:35:51.417Z,45.57
2023-02-08T17:38:20.385Z,46.55
2023-02-08T17:40:47.945Z,45.93
2023-02-08T17:43:15.788Z,46.58
2023-02-08T17:45:44.554Z,46.94
2023-02-08T17:48:14.466Z,46.62
2023-02-08T17:50:46.519Z,47.34
2023-02-08T17:53:14.262Z,47.25
2023-02-08T17:55:45.764Z,46.12
2023-02-08T17:58:13.802Z,46.26
2023-02-08T18:00:41.634Z,46.96
2023-02-08T18:03:09.310Z,46.59
2023-02-08T18:05:37.490Z,47.16
2023-02-08T18:08:05.186Z,46.79
2023-02-08T18:10:33.130Z,47.21
2023-02-08T18:13:00.584Z,47.61
2023-02-08T18:15:28.216Z,47.66
2023-02-08T18:17:55.928Z,48.10
2023-02-08T18:20:23.427Z,48.13
2023-02-08T18:22:50.860Z,48.70
2023-02-08T18:25:19.103Z,49.03
2023-02-08T18:27:46.560Z,48.89
2023-02-08T18:30:14.176Z,48.88
2023-02-08T18:32:41.612Z,48.21
2023-02-08T18:35:09.200Z,48.32
2023-02-08T18:37:37.908Z,47.85
2023-02-08T18:40:07.936Z,47.01
2023-02-08T18:42:36.288Z,46.98
2023-02-08T18:45:05.719Z,46.45
2023-02-08T18:47:35.360Z,46.13
2023-02-08T18:50:03.209Z,45.24
2023-02-08T18:52:31.642Z,44.86
2023-02-08T18:54:59.337Z,44.41
2023-02-08T18:57:26.799Z,44.24
2023-02-08T18:59:57.145Z,44.88
2023-02-08T19:02:26.344Z,45.57
2023-02-08T19:04:54.097Z,45.55
2023-02-08T19:07:21.668Z,45.16
2023-02-08T19:09:51.927Z,45.84
2023-02-08T19:12:21.050Z,45.68
2023-02-08T19:14:50.765Z,45.53
2023-02-08T19:17:18.799Z,45.59
2023-02-08T19:19:46.464Z,45.87
2023-02-08T19:22:15.366Z,45.50
2023-02-08T19:24:43.045Z,45.81
2023-02-08T19:27:10.392Z,46.30
2023-02-08T19:29:38.185Z,45.64
2023-02-08T19:32:08.356Z,45.95
2023-02-08T19:34:35.773Z,45.91
2023-02-08T19:37:03.362Z,45.64
2023-02-08T19:39:30.731Z,45.75
2023-02-08T19:41:58.830Z,45.78
2023-02-08T19:44:29.035Z,45.61
2023-02-08T19:46:57.846Z,45.48
2023-02-08T19:49:26.186Z,45.79
2023-02-08T19:51:54.379Z,45.67
2023-02-08T19:54:25.117Z,46.12
2023-02-08T19:56:55.904Z,46.16
2023-02-08T19:59:26.816Z,46.04
2023-02-08T20:01:55.565Z,46.33
2023-02-08T20:04:23.966Z,46.04
2023-02-08T20:06:53.352Z,46.59
2023-02-08T20:09:23.881Z,46.16
2023-02-08T20:11:57.188Z,46.42
2023-02-08T20:14:31.125Z,46.73
2023-02-08T20:17:00.304Z,46.25
2023-02-08T20:19:28.378Z,46.12
2023-02-08T20:21:55.717Z,46.72
2023-02-08T20:24:23.082Z,46.90
2023-02-08T20:26:50.740Z,47.23
2023-02-08T20:29:18.294Z,47.44
2023-02-08T20:31:53.498Z,47.38
2023-02-08T20:34:21.541Z,47.66
2023-02-08T20:37:05.690Z,47.57
2023-02-08T20:39:35.103Z,47.46
2023-02-08T20:42:02.708Z,47.84
2023-02-08T20:44:31.559Z,47.99
2023-02-08T20:46:58.941Z,47.98
2023-02-08T20:49:26.918Z,47.88
2023-02-08T20:51:54.842Z,48.16
2023-02-08T20:54:24.588Z,48.36
2023-02-08T20:56:53.721Z,47.94
2023-02-08T20:59:21.739Z,47.94
2023-02-08T21:01:49.370Z,47.84
2023-02-08T21:04:17.949Z,48.64
2023-02-08T21:06:46.285Z,48.91
2023-02-08T21:09:15.269Z,48.96
2023-02-08T21:11:43.552Z,49.57
2023-02-08T21:14:19.092Z,48.99
2023-02-08T21:16:52.654Z,49.53
2023-02-08T21:19:20.767Z,49.70
2023-02-08T21:21:56.983Z,49.56
2023-02-08T21:24:25.292Z,49.43
2023-02-08T21:26:54.342Z,49.95
2023-02-08T21:29:23.140Z,49.58
2023-02-08T21:31:54.166Z,50.13
2023-02-08T21:34:22.060Z,49.89
2023-02-08T21:36:49.423Z,50.39
2023-02-08T21:39:16.849Z,50.04
2023-02-08T21:41:45.628Z,50.35
2023-02-08T21:44:13.040Z,50.19
2023-02-08T21:46:40.289Z,50.69
2023-02-08T21:49:26.137Z,50.55
2023-02-08T21:52:15.084Z,50.53
2023-02-08T21:54:42.752Z,50.76
2023-02-08T21:57:19.088Z,50.85
2023-02-08T21:59:48.295Z,50.36
2023-02-08T22:02:25.906Z,51.03
2023-02-08T22:04:57.963Z,51.40
2023-02-08T22:07:26.010Z,51.22
2023-02-08T22:09:53.273Z,52.23
2023-02-08T22:12:24.302Z,51.63
2023-02-08T22:14:51.634Z,51.70
2023-02-08T22:17:19.252Z,51.29
2023-02-08T22:19:46.553Z,51.22
2023-02-08T22:22:14.055Z,51.04
2023-02-08T22:24:41.471Z,50.16
2023-02-08T22:27:09.112Z,50.39
2023-02-08T22:29:36.441Z,50.33
2023-02-08T22:32:05.582Z,49.73
2023-02-08T22:34:33.079Z,49.55
2023-02-08T22:37:03.719Z,48.88
2023-02-08T22:39:32.959Z,48.55
2023-02-08T22:42:00.282Z,48.56
2023-02-08T22:44:27.568Z,48.95
2023-02-08T22:46:56.099Z,48.35
2023-02-08T22:49:23.411Z,48.61
2023-02-08T22:51:50.763Z,48.76
2023-02-08T22:54:18.187Z,49.05
2023-02-08T22:56:45.599Z,48.07
2023-02-08T22:59:15.783Z,48.20
2023-02-08T23:01:43.770Z,47.73
2023-02-08T23:04:11.488Z,48.49
2023-02-08T23:06:39.589Z,47.89
2023-02-08T23:09:07.012Z,47.97
2023-02-08T23:11:34.697Z,47.88
2023-02-08T23:14:01.987Z,47.26
2023-02-08T23:16:29.472Z,47.08
2023-02-08T23:18:56.791Z,46.95
2023-02-08T23:21:24.259Z,46.65
2023-02-08T23:23:51.568Z,46.88
2023-02-08T23:26:21.505Z,46.84
2023-02-08T23:28:53.004Z,46.83
2023-02-08T23:31:21.497Z,47.02
2023-02-08T23:33:49.440Z,46.68
2023-02-08T23:36:20.841Z,47.08
2023-02-08T23:38:49.383Z,46.84
2023-02-08T23:41:20.170Z,47.57
2023-02-08T23:43:48.894Z,46.59
2023-02-08T23:46:17.226Z,47.13
2023-02-08T23:48:45.760Z,46.55
2023-02-08T23:51:13.812Z,47.08
2023-02-08T23:53:41.078Z,46.96
2023-02-08T23:56:16.662Z,47.32
2023-02-08T23:58:45.278Z,46.89
